Time;durP1;ratioP1;P1;durP2;ratioP2;P2;SDS_P1;SDS_P2;PMS_P1;PMS_P2;Temp;Humidity;BMP_temperature;BMP_pressure;BME280_temperature;BME280_humidity;BME280_pressure;Samples;Min_cycle;Max_cycle;Signal;HPM_P1;HPM_P2
2021/03/10 00:00:14;;;;;;;69.03;38.47;;;;;;;23.19;18.01;98644.28;5064096;28;20082;-58
2021/03/10 00:02:40;;;;;;;63.63;35.70;;;;;;;23.19;17.79;98642.28;5064031;28;20031;-58
2021/03/10 00:05:07;;;;;;;71.50;36.90;;;;;;;23.22;18.04;98646.38;5065168;28;20056;-50
2021/03/10 00:07:33;;;;;;;63.53;35.53;;;;;;;23.24;17.88;98637.59;5065215;28;20032;-54
2021/03/10 00:09:58;;;;;;;67.20;36.90;;;;;;;23.24;17.92;98643.19;5064762;28;20855;-47
2021/03/10 00:12:24;;;;;;;64.90;36.13;;;;;;;23.25;17.94;98647.59;5063403;28;20036;-55
2021/03/10 00:14:49;;;;;;;63.53;34.85;;;;;;;23.28;17.86;98644.03;5053250;28;20779;-56
2021/03/10 00:17:15;;;;;;;65.50;36.25;;;;;;;23.29;17.98;98648.47;5038012;28;20028;-56
2021/03/10 00:19:42;;;;;;;65.60;35.75;;;;;;;23.31;17.70;98652.47;5062183;28;20113;-56
2021/03/10 00:22:07;;;;;;;65.05;35.97;;;;;;;23.32;17.79;98645.69;5064801;28;20028;-56
2021/03/10 00:24:33;;;;;;;63.17;35.35;;;;;;;23.35;17.76;98649.75;5063384;28;20039;-46
2021/03/10 00:26:58;;;;;;;63.42;35.25;;;;;;;23.37;17.79;98643.75;5045388;28;20279;-60
2021/03/10 00:29:23;;;;;;;67.72;39.58;;;;;;;23.38;17.80;98637.81;5066416;28;20028;-62
2021/03/10 00:31:49;;;;;;;66.32;37.88;;;;;;;23.41;17.62;98636.22;5064915;28;20102;-64
2021/03/10 00:34:14;;;;;;;62.08;36.28;;;;;;;23.43;17.78;98639.44;5061179;28;20661;-67
2021/03/10 00:36:43;;;;;;;61.30;36.92;;;;;;;23.43;17.64;98634.69;5054716;28;20025;-62
2021/03/10 00:39:08;;;;;;;68.38;38.45;;;;;;;23.46;17.74;98633.09;5056992;28;20110;-61
2021/03/10 00:41:33;;;;;;;65.43;38.03;;;;;;;23.46;17.59;98633.88;5066679;28;20472;-68
2021/03/10 00:43:58;;;;;;;60.35;36.45;;;;;;;23.47;17.73;98641.09;5064340;28;20385;-69
2021/03/10 00:46:24;;;;;;;63.03;37.35;;;;;;;23.48;17.69;98630.72;5063743;28;20132;-64
2021/03/10 00:48:49;;;;;;;58.33;34.67;;;;;;;23.48;17.61;98623.13;5063391;28;20033;-63
2021/03/10 00:51:15;;;;;;;67.78;37.30;;;;;;;23.48;17.64;98631.53;5064142;28;20021;-60
2021/03/10 00:53:42;;;;;;;62.83;36.95;;;;;;;23.48;17.70;98625.13;5064943;28;20029;-59
2021/03/10 00:56:08;;;;;;;63.22;36.85;;;;;;;23.48;17.59;98630.72;5057642;28;20191;-59
2021/03/10 00:58:33;;;;;;;58.33;36.28;;;;;;;23.47;17.63;98635.50;5037023;28;20036;-63
2021/03/10 01:00:59;;;;;;;61.17;37.38;;;;;;;23.46;17.63;98636.69;5057147;28;20362;-62
2021/03/10 01:03:24;;;;;;;61.63;36.95;;;;;;;23.46;17.69;98633.88;5062028;28;20155;-61
2021/03/10 01:05:49;;;;;;;60.38;36.85;;;;;;;23.45;17.62;98634.28;5063891;28;20082;-66
2021/03/10 01:08:15;;;;;;;62.38;35.95;;;;;;;23.46;17.70;98633.88;5063872;28;20028;-63
2021/03/10 01:10:41;;;;;;;62.65;37.38;;;;;;;23.47;17.63;98629.13;5063504;28;20043;-59
2021/03/10 01:13:07;;;;;;;66.15;37.50;;;;;;;23.48;17.53;98636.31;5063700;28;20025;-61
2021/03/10 01:15:32;;;;;;;59.80;35.05;;;;;;;23.46;17.49;98630.31;5066335;28;20160;-61
2021/03/10 01:17:58;;;;;;;58.90;36.05;;;;;;;23.44;17.51;98627.06;5058648;28;20025;-62
2021/03/10 01:20:24;;;;;;;64.10;36.95;;;;;;;23.39;17.47;98622.63;5057886;28;20036;-50
2021/03/10 01:22:49;;;;;;;59.05;35.72;;;;;;;23.39;17.63;98621.81;5064631;28;20021;-50
2021/03/10 01:25:15;;;;;;;55.47;33.25;;;;;;;23.40;17.54;98620.63;5047990;28;20089;-47
2021/03/10 01:27:41;;;;;;;55.67;33.47;;;;;;;23.41;17.54;98627.81;5068747;28;20020;-49
2021/03/10 01:30:10;;;;;;;58.30;35.17;;;;;;;23.43;17.52;98620.69;5067215;28;20032;-49
2021/03/10 01:32:35;;;;;;;53.50;33.03;;;;;;;23.44;17.44;98625.06;5067606;28;20483;-47
2021/03/10 01:35:01;;;;;;;53.55;32.97;;;;;;;23.44;17.43;98622.25;5067651;28;20021;-51
2021/03/10 01:37:27;;;;;;;53.15;32.25;;;;;;;23.46;17.41;98621.91;5064350;28;20036;-46
2021/03/10 01:39:52;;;;;;;55.58;32.22;;;;;;;23.45;17.43;98617.50;5058248;28;20032;-48
2021/03/10 01:42:17;;;;;;;54.80;32.35;;;;;;;23.45;17.31;98621.09;5059014;28;20317;-48
2021/03/10 01:44:43;;;;;;;51.80;32.15;;;;;;;23.46;17.37;98628.28;5067071;28;20048;-51
2021/03/10 01:47:08;;;;;;;50.08;31.00;;;;;;;23.45;17.41;98625.88;5068313;28;20027;-48
2021/03/10 01:49:35;;;;;;;51.92;30.70;;;;;;;23.44;17.30;98624.28;5067840;28;20411;-50
2021/03/10 01:52:01;;;;;;;49.85;30.35;;;;;;;23.42;17.28;98619.06;5066579;28;20036;-49
2021/03/10 01:54:26;;;;;;;48.33;29.75;;;;;;;23.40;17.33;98615.84;5066871;28;20025;-49
2021/03/10 01:56:52;;;;;;;49.05;29.85;;;;;;;23.39;17.33;98619.00;5066944;28;20052;-50
2021/03/10 01:59:17;;;;;;;52.88;30.80;;;;;;;23.37;17.33;98622.19;5040901;28;20032;-47
2021/03/10 02:01:43;;;;;;;52.33;29.88;;;;;;;23.36;17.30;98619.75;5057608;28;20230;-47
2021/03/10 02:04:10;;;;;;;50.50;30.02;;;;;;;23.34;17.14;98612.56;5061627;28;20392;-51
2021/03/10 02:06:50;;;;;;;50.42;30.90;;;;;;;23.33;17.21;98610.13;5067257;28;20039;-46
2021/03/10 02:09:34;;;;;;;50.50;29.90;;;;;;;23.31;17.24;98613.31;5066939;28;20539;-52
2021/03/10 02:12:41;;;;;;;45.75;28.17;;;;;;;23.29;17.22;98612.88;5066509;28;20131;-48
2021/03/10 02:15:29;;;;;;;49.28;28.65;;;;;;;23.28;17.33;98602.88;5066924;28;20081;-50
2021/03/10 02:18:19;;;;;;;47.50;28.48;;;;;;;23.25;17.40;98609.22;5066592;28;20068;-46
2021/03/10 02:20:47;;;;;;;48.92;28.40;;;;;;;23.22;17.47;98604.41;5058647;28;20039;-47
2021/03/10 02:23:37;;;;;;;47.50;27.73;;;;;;;23.23;17.26;98602.41;5058125;28;20013;-46
2021/03/10 02:26:16;;;;;;;44.80;28.20;;;;;;;23.23;17.42;98613.59;5063602;28;20041;-48
2021/03/10 02:28:42;;;;;;;;;;;;;;;23.23;17.27;98605.19;5068075;28;20036;-48
2021/03/10 02:31:11;;;;;;;45.92;26.77;;;;;;;23.22;17.31;98597.94;5066553;28;19916;-47
2021/03/10 02:33:37;;;;;;;46.58;27.15;;;;;;;23.20;17.25;98607.53;5066172;28;20028;-47
2021/03/10 02:36:10;;;;;;;45.90;27.05;;;;;;;23.22;17.43;98609.16;5066144;28;20036;-49
2021/03/10 02:38:39;;;;;;;43.65;27.15;;;;;;;23.21;17.40;98608.34;5066355;28;20051;-49
2021/03/10 02:41:07;;;;;;;42.05;26.63;;;;;;;23.23;17.31;98608.00;5060486;28;20016;-48
2021/03/10 02:43:34;;;;;;;41.33;25.42;;;;;;;23.22;17.34;98601.59;5038244;28;20063;-49
2021/03/10 02:46:02;;;;;;;42.03;25.05;;;;;;;23.23;17.56;98608.00;5040423;28;20484;-48
2021/03/10 02:48:27;;;;;;;42.03;25.17;;;;;;;23.23;17.18;98602.41;5066093;28;20025;-50
2021/03/10 02:50:54;;;;;;;40.47;24.80;;;;;;;23.23;17.27;98594.00;5066512;28;20027;-48
2021/03/10 02:53:20;;;;;;;41.60;26.02;;;;;;;23.22;17.20;98600.75;5066334;28;20476;-51
2021/03/10 02:55:46;;;;;;;40.42;24.70;;;;;;;23.20;17.20;98601.16;5066691;28;20025;-45
2021/03/10 02:58:11;;;;;;;41.45;25.08;;;;;;;23.19;17.22;98607.94;5046592;28;20040;-45
2021/03/10 03:00:38;;;;;;;39.88;24.98;;;;;;;23.17;17.14;98599.09;5066294;28;20024;-45
2021/03/10 03:03:03;;;;;;;41.65;24.73;;;;;;;23.16;17.17;98609.47;5057079;28;20139;-46
2021/03/10 03:05:32;;;;;;;41.30;23.77;;;;;;;23.15;17.27;98604.28;5037312;28;20017;-47
2021/03/10 03:07:58;;;;;;;39.42;24.15;;;;;;;23.13;17.23;98607.44;5062596;28;20164;-47
2021/03/10 03:10:27;;;;;;;40.13;23.55;;;;;;;23.12;17.20;98602.22;5065568;28;20592;-47
2021/03/10 03:12:53;;;;;;;39.00;23.95;;;;;;;23.11;17.04;98614.59;5066040;28;20033;-48
2021/03/10 03:15:23;;;;;;;41.88;24.13;;;;;;;23.09;17.21;98614.97;5065600;28;20023;-46
2021/03/10 03:17:49;;;;;;;37.40;23.50;;;;;;;23.08;17.15;98612.56;5065734;28;20439;-49
2021/03/10 03:20:17;;;;;;;40.25;24.92;;;;;;;23.06;17.06;98610.13;5065351;28;20025;-46
2021/03/10 03:22:48;;;;;;;43.28;24.40;;;;;;;23.05;17.11;98611.28;5062548;28;20024;-47
2021/03/10 03:25:39;;;;;;;41.53;24.83;;;;;;;23.04;17.13;98606.88;5053114;28;20019;-51
2021/03/10 03:28:06;;;;;;;40.22;23.08;;;;;;;23.04;17.18;98616.09;5046375;28;20036;-47
2021/03/10 03:30:34;;;;;;;42.25;24.08;;;;;;;23.03;17.22;98602.47;5065712;28;20020;-45
2021/03/10 03:33:02;;;;;;;41.70;24.58;;;;;;;23.02;17.01;98610.06;5065902;28;20032;-50
2021/03/10 03:35:28;;;;;;;40.28;23.17;;;;;;;23.04;17.17;98612.47;5064830;28;20024;-48
2021/03/10 03:37:55;;;;;;;42.33;23.40;;;;;;;23.02;17.28;98606.47;5065024;28;20032;-49
2021/03/10 03:40:24;;;;;;;40.05;23.60;;;;;;;23.01;17.16;98614.06;5064676;28;20020;-49
2021/03/10 03:42:50;;;;;;;41.83;23.48;;;;;;;23.00;17.17;98608.84;5064772;28;20023;-46
2021/03/10 03:45:17;;;;;;;40.13;23.15;;;;;;;23.00;17.11;98608.84;5055986;28;20808;-46
2021/03/10 03:47:42;;;;;;;37.60;23.05;;;;;;;22.99;17.11;98613.63;5056480;28;20032;-46
2021/03/10 03:50:12;;;;;;;39.83;23.35;;;;;;;23.01;17.12;98607.66;5063079;28;20028;-50
2021/03/10 03:52:43;;;;;;;37.22;21.88;;;;;;;23.02;17.07;98612.88;5065135;28;20020;-47
2021/03/10 03:55:10;;;;;;;38.13;22.33;;;;;;;23.04;17.22;98607.72;5065831;28;20051;-50
2021/03/10 03:57:37;;;;;;;37.95;22.63;;;;;;;23.08;17.28;98613.34;5048764;28;20071;-47
2021/03/10 04:00:08;;;;;;;39.20;23.02;;;;;;;23.10;17.29;98608.19;5065317;28;20487;-46
2021/03/10 04:02:34;;;;;;;39.97;23.15;;;;;;;23.12;17.25;98605.81;5064657;28;20376;-50
2021/03/10 04:04:59;;;;;;;36.58;22.80;;;;;;;23.14;17.09;98611.84;5060069;28;20028;-49
2021/03/10 04:07:24;;;;;;;37.03;22.88;;;;;;;23.15;17.10;98613.44;5055522;28;20040;-49
2021/03/10 04:09:50;;;;;;;38.47;22.70;;;;;;;23.17;17.01;98613.88;5057110;28;20013;-48
2021/03/10 04:12:15;;;;;;;37.63;22.30;;;;;;;23.20;17.16;98615.13;5065660;28;20380;-50
2021/03/10 04:14:41;;;;;;;35.40;21.95;;;;;;;23.20;17.18;98610.34;5064871;28;20024;-49
2021/03/10 04:17:06;;;;;;;37.13;22.88;;;;;;;23.22;16.98;98620.34;5064899;28;20016;-46
2021/03/10 04:19:32;;;;;;;38.88;22.33;;;;;;;23.24;17.15;98620.78;5047042;28;20028;-45
2021/03/10 04:21:57;;;;;;;39.35;22.70;;;;;;;23.25;17.14;98619.63;5064794;28;20461;-47
2021/03/10 04:24:22;;;;;;;37.13;22.42;;;;;;;23.26;17.09;98622.03;5064528;28;20020;-46
2021/03/10 04:26:48;;;;;;;34.90;21.75;;;;;;;23.27;17.05;98611.66;5057628;28;20533;-48
2021/03/10 04:29:13;;;;;;;38.50;22.15;;;;;;;23.27;16.81;98622.84;5055727;28;20259;-46
2021/03/10 04:31:38;;;;;;;38.95;23.38;;;;;;;23.27;16.99;98614.44;5060263;28;20031;-49
2021/03/10 04:34:04;;;;;;;38.85;23.55;;;;;;;23.27;17.07;98617.25;5064250;28;20557;-48
2021/03/10 04:36:29;;;;;;;35.60;22.48;;;;;;;23.26;17.18;98619.22;5064522;28;20050;-47
2021/03/10 04:38:55;;;;;;;39.67;23.75;;;;;;;23.26;17.13;98624.03;5064637;28;20047;-47
2021/03/10 04:41:20;;;;;;;39.10;23.58;;;;;;;23.25;17.12;98623.19;5065466;28;20902;-46
2021/03/10 04:43:45;;;;;;;37.45;22.98;;;;;;;23.25;16.93;98622.41;5064401;28;20081;-47
2021/03/10 04:46:11;;;;;;;37.80;23.48;;;;;;;23.24;17.08;98626.41;5062891;28;20044;-45
2021/03/10 04:48:36;;;;;;;41.40;23.00;;;;;;;23.22;16.95;98634.31;5055105;28;20042;-51
2021/03/10 04:51:02;;;;;;;40.45;24.27;;;;;;;23.19;16.98;98633.09;5055052;28;20122;-46
2021/03/10 04:53:27;;;;;;;38.42;24.08;;;;;;;23.17;16.78;98627.06;5063363;28;20025;-49
2021/03/10 04:55:53;;;;;;;39.22;23.73;;;;;;;23.15;16.91;98635.03;5064149;28;20035;-48
2021/03/10 04:58:18;;;;;;;42.10;25.17;;;;;;;23.14;16.88;98628.63;5064771;28;20032;-47
2021/03/10 05:00:44;;;;;;;38.28;22.98;;;;;;;23.13;16.93;98631.81;5066396;28;20044;-49
2021/03/10 05:03:09;;;;;;;40.03;23.50;;;;;;;23.11;16.95;98639.78;5064461;28;20032;-50
2021/03/10 05:05:35;;;;;;;36.83;22.45;;;;;;;23.11;16.92;98632.16;5063197;28;20033;-51
2021/03/10 05:08:00;;;;;;;42.50;23.30;;;;;;;23.11;17.01;98632.16;5059248;28;20686;-47
2021/03/10 05:10:26;;;;;;;39.15;23.65;;;;;;;23.10;16.92;98638.94;5054532;28;20039;-48
2021/03/10 05:12:51;;;;;;;40.92;24.33;;;;;;;23.11;16.97;98632.16;5056594;28;20438;-48
2021/03/10 05:15:16;;;;;;;40.53;24.27;;;;;;;23.12;17.02;98644.19;5064063;28;20024;-48
2021/03/10 05:17:42;;;;;;;40.38;23.55;;;;;;;23.13;17.14;98648.59;5045656;28;20044;-46
2021/03/10 05:20:09;;;;;;;45.90;24.83;;;;;;;23.13;16.99;98646.59;5064400;28;20058;-46
2021/03/10 05:22:34;;;;;;;42.03;24.35;;;;;;;23.15;16.89;98651.81;5063957;28;20075;-49
2021/03/10 05:25:00;;;;;;;42.80;24.25;;;;;;;23.14;16.96;98651.00;5073000;28;20032;-49
2021/03/10 05:27:25;;;;;;;44.05;25.58;;;;;;;23.16;17.00;98653.44;5081775;28;20063;-48
2021/03/10 05:29:52;;;;;;;46.80;26.40;;;;;;;23.14;16.88;98650.22;5080056;28;20021;-47
2021/03/10 05:32:17;;;;;;;44.13;25.02;;;;;;;23.15;16.88;98655.41;5081474;28;20100;-51
2021/03/10 05:34:43;;;;;;;48.20;26.10;;;;;;;23.14;16.86;98650.22;5081365;28;20028;-46
2021/03/10 05:37:08;;;;;;;48.70;26.20;;;;;;;23.13;16.75;98652.19;5079927;28;20024;-49
2021/03/10 05:39:34;;;;;;;45.85;26.33;;;;;;;23.12;16.94;98658.97;5081421;28;20483;-46
2021/03/10 05:41:59;;;;;;;44.45;26.02;;;;;;;23.11;17.01;98662.94;5080863;28;20021;-47
2021/03/10 05:44:25;;;;;;;49.20;26.55;;;;;;;23.11;16.91;98651.75;5079728;28;20095;-50
2021/03/10 05:46:54;;;;;;;45.90;26.60;;;;;;;23.11;16.99;98657.34;5081566;28;20103;-49
2021/03/10 05:49:20;;;;;;;47.35;26.50;;;;;;;23.10;16.84;98652.94;5080507;28;20488;-49
2021/03/10 05:51:45;;;;;;;46.90;25.33;;;;;;;23.11;16.85;98659.34;5079424;28;20036;-47
2021/03/10 05:54:13;;;;;;;48.50;27.40;;;;;;;23.12;16.79;98655.38;5081295;28;20016;-47
2021/03/10 05:56:42;;;;;;;47.10;26.23;;;;;;;23.12;17.00;98658.16;5080334;28;20055;-49
2021/03/10 05:59:08;;;;;;;48.58;26.75;;;;;;;23.12;17.04;98666.56;5079190;28;20020;-47
2021/03/10 06:01:33;;;;;;;47.10;26.98;;;;;;;23.12;16.80;98666.56;5084479;28;20544;-49
2021/03/10 06:04:01;;;;;;;51.67;28.30;;;;;;;23.12;16.91;98670.16;5084261;28;20051;-46
2021/03/10 06:06:34;;;;;;;52.83;28.67;;;;;;;23.14;16.83;98675.38;5083246;28;20108;-51
2021/03/10 06:09:09;;;;;;;57.33;30.63;;;;;;;23.14;16.89;98676.19;5084316;28;20481;-49
2021/03/10 06:11:34;;;;;;;55.55;30.00;;;;;;;23.16;16.93;98676.59;5083424;28;20059;-50
2021/03/10 06:14:00;;;;;;;58.15;31.00;;;;;;;23.18;16.92;98674.25;5066063;28;20048;-52
2021/03/10 06:16:26;;;;;;;57.85;30.25;;;;;;;23.19;16.90;98678.66;5084500;28;20055;-48
2021/03/10 06:19:02;;;;;;;54.92;28.88;;;;;;;23.20;16.89;98683.06;5064657;28;20415;-49
2021/03/10 06:21:29;;;;;;;55.33;30.23;;;;;;;23.20;16.92;98683.06;5082565;28;20073;-47
2021/03/10 06:23:59;;;;;;;57.55;30.30;;;;;;;23.20;16.92;98676.69;5084328;28;20532;-47
2021/03/10 06:26:27;;;;;;;53.67;28.70;;;;;;;23.20;16.74;98687.88;5084425;28;20087;-46
2021/03/10 06:28:54;;;;;;;53.45;29.33;;;;;;;23.20;16.90;98682.28;5082758;28;20138;-47
2021/03/10 06:31:25;;;;;;;54.95;29.30;;;;;;;23.22;16.76;98696.72;5083544;28;20091;-46
2021/03/10 06:33:57;;;;;;;57.45;30.40;;;;;;;23.20;16.69;98691.47;5084601;28;20093;-48
2021/03/10 06:36:24;;;;;;;55.50;29.25;;;;;;;23.20;16.69;98694.25;5083918;28;20452;-47
2021/03/10 06:38:51;;;;;;;53.85;29.25;;;;;;;23.20;16.83;98697.06;5082245;28;20032;-52
2021/03/10 06:41:30;;;;;;;53.33;28.83;;;;;;;23.23;16.79;98698.31;5083625;28;20028;-49
2021/03/10 06:43:56;;;;;;;52.53;30.50;;;;;;;23.23;16.74;98703.91;5082997;28;20380;-50
2021/03/10 06:46:21;;;;;;;53.67;30.42;;;;;;;23.24;16.78;98704.72;5082906;28;20036;-51
2021/03/10 06:48:55;;;;;;;53.88;29.40;;;;;;;23.27;16.79;98712.38;5084007;28;20402;-47
2021/03/10 06:51:22;;;;;;;50.00;28.45;;;;;;;23.29;16.72;98712.81;5083337;28;20024;-49
2021/03/10 06:53:48;;;;;;;52.63;29.92;;;;;;;23.30;16.90;98715.22;5081744;28;20024;-48
2021/03/10 06:56:20;;;;;;;51.33;29.52;;;;;;;23.32;16.96;98715.66;5083964;28;20081;-53
2021/03/10 06:58:56;;;;;;;50.35;29.02;;;;;;;23.32;16.79;98721.25;5083750;28;20073;-54
2021/03/10 07:01:27;;;;;;;50.00;29.50;;;;;;;23.33;16.90;98719.28;5083493;28;20500;-53
2021/03/10 07:03:55;;;;;;;54.15;29.85;;;;;;;23.33;16.97;98722.88;5082141;28;20024;-53
2021/03/10 07:06:21;;;;;;;52.95;30.88;;;;;;;23.35;16.91;98728.09;5082638;28;20031;-52
2021/03/10 07:08:48;;;;;;;52.70;31.50;;;;;;;23.37;16.92;98734.13;5083526;28;20545;-54
2021/03/10 07:11:14;;;;;;;51.47;30.92;;;;;;;23.37;16.89;98734.13;5081834;28;20469;-50
2021/03/10 07:13:41;;;;;;;51.05;30.65;;;;;;;23.36;16.93;98726.91;5082352;28;20089;-50
2021/03/10 07:16:09;;;;;;;52.83;31.17;;;;;;;23.37;16.98;98738.91;5083495;28;20143;-50
2021/03/10 07:18:35;;;;;;;55.53;31.50;;;;;;;23.36;16.93;98735.31;5081585;28;20016;-51
2021/03/10 07:21:02;;;;;;;56.30;31.63;;;;;;;23.36;16.96;98735.31;5082293;28;20488;-52
2021/03/10 07:23:29;;;;;;;52.17;30.90;;;;;;;23.38;16.89;98743.31;5065306;28;20020;-49
2021/03/10 07:26:00;;;;;;;53.13;31.20;;;;;;;23.37;17.01;98738.91;5081781;28;20048;-49
2021/03/10 07:28:30;;;;;;;58.22;35.25;;;;;;;23.38;17.00;98743.31;5081654;28;20035;-47
2021/03/10 07:30:56;;;;;;;59.10;35.15;;;;;;;23.38;17.02;98740.53;5081661;28;20174;-47
2021/03/10 07:33:23;;;;;;;61.60;36.33;;;;;;;23.39;16.98;98750.53;5081897;28;20555;-47
2021/03/10 07:35:49;;;;;;;60.58;35.55;;;;;;;23.39;16.86;98751.34;5082888;28;20020;-47
2021/03/10 07:38:14;;;;;;;67.22;35.72;;;;;;;23.40;16.81;98749.34;5081147;28;20031;-44
2021/03/10 07:40:51;;;;;;;58.17;34.75;;;;;;;23.39;16.98;98742.97;5082154;28;20031;-48
2021/03/10 07:43:16;;;;;;;62.08;36.90;;;;;;;23.40;16.99;98750.19;5064859;28;20024;-49
2021/03/10 07:45:44;;;;;;;60.10;37.00;;;;;;;23.39;16.80;98745.75;5082152;28;20052;-46
2021/03/10 07:48:10;;;;;;;62.10;38.33;;;;;;;23.40;16.79;98754.94;5080778;28;20021;-50
2021/03/10 07:50:43;;;;;;;61.40;36.63;;;;;;;23.39;16.87;98756.97;5082574;28;20093;-50
2021/03/10 07:53:09;;;;;;;62.22;36.50;;;;;;;23.39;16.80;98756.13;5082774;28;20090;-50
2021/03/10 07:55:46;;;;;;;60.63;34.85;;;;;;;23.38;16.91;98755.34;5081054;28;20025;-45
2021/03/10 07:58:12;;;;;;;62.58;38.20;;;;;;;23.38;17.00;98755.34;5080602;28;20400;-48
2021/03/10 08:00:39;;;;;;;61.53;37.55;;;;;;;23.38;17.01;98755.34;5081908;28;20507;-47
2021/03/10 08:03:05;;;;;;;61.47;37.08;;;;;;;23.39;16.96;98756.13;5082003;28;20063;-47
2021/03/10 08:05:32;;;;;;;63.05;37.25;;;;;;;23.40;16.94;98761.38;5080559;28;20082;-46
2021/03/10 08:08:09;;;;;;;63.13;36.72;;;;;;;23.40;17.04;98758.56;5076353;28;20024;-47
2021/03/10 08:10:36;;;;;;;54.72;33.05;;;;;;;23.43;17.07;98762.59;5072750;28;20029;-45
2021/03/10 08:13:18;;;;;;;57.50;35.40;;;;;;;23.44;16.86;98756.59;5072559;28;20100;-51
2021/03/10 08:15:45;;;;;;;56.80;33.97;;;;;;;23.43;17.05;98757.00;5072899;28;20103;-47
2021/03/10 08:18:10;;;;;;;57.28;34.10;;;;;;;23.42;17.00;98756.22;5073044;28;20477;-46
2021/03/10 08:20:37;;;;;;;61.30;35.38;;;;;;;23.42;16.97;98760.97;5073105;28;20023;-44
2021/03/10 08:23:04;;;;;;;58.75;36.65;;;;;;;23.40;16.92;98752.97;5082717;28;20118;-46
2021/03/10 08:25:33;;;;;;;57.95;37.13;;;;;;;23.41;16.83;98753.78;5092365;28;20077;-46
2021/03/10 08:28:17;;;;;;;62.20;40.15;;;;;;;23.42;16.81;98756.22;5093016;28;20024;-49
2021/03/10 08:30:43;;;;;;;57.80;36.97;;;;;;;23.43;16.83;98759.81;5090014;28;20028;-51
2021/03/10 08:33:10;;;;;;;60.63;38.85;;;;;;;23.44;16.89;98759.41;5072838;28;20404;-48
2021/03/10 08:35:36;;;;;;;63.50;40.10;;;;;;;23.46;17.04;98765.44;5072633;28;20039;-51
2021/03/10 08:38:04;;;;;;;64.15;39.88;;;;;;;23.46;17.00;98750.66;5072704;28;20024;-52
2021/03/10 08:40:31;;;;;;;60.90;40.58;;;;;;;23.46;17.21;98759.84;5072787;28;20029;-50
2021/03/10 08:42:58;;;;;;;62.92;40.72;;;;;;;23.47;17.05;98763.47;5072311;28;20047;-53
2021/03/10 08:45:29;;;;;;;58.58;37.67;;;;;;;23.49;17.17;98761.09;5072753;28;20082;-59
2021/03/10 08:47:58;;;;;;;57.00;37.85;;;;;;;23.52;17.30;98756.72;5073107;28;20067;-59
2021/03/10 08:50:29;;;;;;;53.28;35.08;;;;;;;23.49;17.15;98766.69;5072566;28;20024;-59
2021/03/10 08:52:55;;;;;;;59.70;38.08;;;;;;;23.47;17.14;98758.66;5072696;28;20113;-59
2021/03/10 08:55:24;;;;;;;53.42;35.13;;;;;;;23.43;17.07;98769.03;5072447;28;20472;-57
2021/03/10 08:57:50;;;;;;;53.30;33.72;;;;;;;23.37;17.08;98761.28;5072062;28;20027;-62
2021/03/10 09:00:25;;;;;;;54.45;32.83;;;;;;;23.33;17.30;98769.66;5072429;28;20020;-59
2021/03/10 09:02:52;;;;;;;50.15;30.80;;;;;;;23.31;17.34;98760.81;5072291;28;20077;-58
2021/03/10 09:05:25;;;;;;;46.42;29.50;;;;;;;23.26;17.20;98767.53;5072139;28;20024;-57
2021/03/10 09:07:50;;;;;;;43.85;28.35;;;;;;;23.24;17.15;98757.91;5072151;28;20028;-58
2021/03/10 09:10:18;;;;;;;49.17;30.73;;;;;;;23.20;17.11;98774.59;5072039;28;20031;-58
2021/03/10 09:12:49;;;;;;;48.80;29.73;;;;;;;23.18;17.26;98769.38;5085770;28;20114;-57
2021/03/10 09:15:24;;;;;;;41.08;26.67;;;;;;;23.14;17.27;98759.31;5091604;28;20028;-59
2021/03/10 09:17:50;;;;;;;40.65;26.83;;;;;;;23.12;17.32;98768.06;5090679;28;20036;-59
2021/03/10 09:20:31;;;;;;;38.92;25.27;;;;;;;23.12;17.29;98764.47;5090319;28;20640;-59
2021/03/10 09:22:58;;;;;;;41.08;25.95;;;;;;;23.09;17.10;98765.22;5073672;28;20024;-57
2021/03/10 09:25:29;;;;;;;35.60;23.70;;;;;;;23.04;16.91;98758.75;5091648;28;20369;-56
2021/03/10 09:28:11;;;;;;;39.33;23.27;;;;;;;23.03;16.79;98767.50;5091740;28;20024;-58
2021/03/10 09:30:42;;;;;;;36.10;22.70;;;;;;;23.03;16.71;98759.94;5091990;28;20028;-57
2021/03/10 09:33:39;;;;;;;32.25;20.45;;;;;;;23.00;16.55;98769.06;5092001;28;20099;-57
2021/03/10 09:36:04;;;;;;;29.25;19.58;;;;;;;23.00;16.19;98762.69;5074587;28;20464;-59
2021/03/10 09:38:31;;;;;;;40.33;23.08;;;;;;;22.96;16.13;98762.59;5096027;28;20030;-58
2021/03/10 09:40:59;;;;;;;35.03;21.17;;;;;;;22.96;15.96;98759.00;5096102;28;20077;-59
2021/03/10 09:43:27;;;;;;;36.25;21.15;;;;;;;22.88;15.61;98760.84;5095881;28;20176;-60
2021/03/10 09:46:03;;;;;;;34.30;20.33;;;;;;;22.83;15.88;98752.75;5095542;28;20048;-60
2021/03/10 09:48:34;;;;;;;34.47;20.30;;;;;;;22.83;15.78;98752.75;5095584;28;20040;-60
2021/03/10 09:51:05;;;;;;;34.45;19.25;;;;;;;22.84;15.78;98763.59;5095845;28;20043;-60
2021/03/10 09:53:31;;;;;;;30.20;18.55;;;;;;;22.88;15.71;98760.84;5095545;28;20027;-59
2021/03/10 09:56:07;;;;;;;31.10;18.35;;;;;;;22.92;15.98;98756.13;5095688;28;20415;-60
2021/03/10 09:58:32;;;;;;;31.55;18.17;;;;;;;22.96;15.75;98756.22;5095178;28;20035;-60
2021/03/10 10:00:59;;;;;;;30.38;18.73;;;;;;;23.00;15.91;98755.06;5095310;28;20020;-60
2021/03/10 10:03:26;;;;;;;28.98;18.25;;;;;;;23.06;15.76;98758.34;5095238;28;20023;-60
2021/03/10 10:06:07;;;;;;;30.60;17.50;;;;;;;23.10;16.04;98756.44;5094882;28;20202;-60
2021/03/10 10:08:38;;;;;;;27.70;17.40;;;;;;;23.16;15.79;98762.53;5076747;28;20447;-60
2021/03/10 10:11:07;;;;;;;28.33;17.42;;;;;;;23.21;15.88;98756.63;5095361;28;20472;-60
2021/03/10 10:13:32;;;;;;;28.70;18.02;;;;;;;23.27;15.71;98754.34;5095363;28;20032;-59
2021/03/10 10:15:58;;;;;;;28.35;17.00;;;;;;;23.32;15.78;98754.03;5095376;28;20348;-60
2021/03/10 10:18:24;;;;;;;29.83;17.20;;;;;;;23.37;15.95;98752.91;5095265;28;20038;-60
2021/03/10 10:20:49;;;;;;;28.48;17.17;;;;;;;23.42;15.78;98755.38;5095074;28;20099;-60
2021/03/10 10:23:15;;;;;;;25.58;15.63;;;;;;;23.46;15.89;98759.06;5076868;28;20036;-60
2021/03/10 10:25:40;;;;;;;27.88;16.25;;;;;;;23.50;15.80;98751.53;5095384;28;20103;-60
2021/03/10 10:28:06;;;;;;;25.80;16.10;;;;;;;23.55;15.84;98756.81;5095267;28;20058;-60
2021/03/10 10:30:31;;;;;;;25.40;15.85;;;;;;;23.59;15.79;98752.06;5095282;28;20028;-60
2021/03/10 10:32:56;;;;;;;23.42;14.77;;;;;;;23.64;15.77;98753.72;5095403;28;20020;-60
2021/03/10 10:35:22;;;;;;;26.17;15.98;;;;;;;23.68;15.77;98760.19;5095229;28;20054;-60
2021/03/10 10:37:48;;;;;;;24.80;15.93;;;;;;;23.70;15.86;98760.63;5095465;28;20046;-60
2021/03/10 10:40:19;;;;;;;24.00;15.23;;;;;;;23.74;15.77;98769.06;5095224;28;20028;-60
2021/03/10 10:42:48;;;;;;;24.55;14.65;;;;;;;23.78;15.65;98775.53;5095446;28;20059;-60
2021/03/10 10:45:14;;;;;;;24.25;15.35;;;;;;;23.81;15.67;98777.56;5094853;28;20044;-60
2021/03/10 10:47:41;;;;;;;23.08;14.57;;;;;;;23.81;15.67;98774.75;5094199;28;20020;-60
2021/03/10 10:50:08;;;;;;;23.52;14.63;;;;;;;23.83;15.69;98769.59;5095130;28;20024;-60
2021/03/10 10:52:34;;;;;;;25.05;14.75;;;;;;;23.85;15.78;98766.41;5094893;28;20043;-60
2021/03/10 10:55:00;;;;;;;23.60;13.95;;;;;;;23.87;15.72;98775.22;5094947;28;20103;-60
2021/03/10 10:57:26;;;;;;;22.45;14.35;;;;;;;23.88;15.38;98774.88;5094625;28;20032;-60
2021/03/10 10:59:51;;;;;;;21.08;13.35;;;;;;;23.89;15.68;98772.88;5094812;28;20078;-60
2021/03/10 11:02:17;;;;;;;21.60;14.10;;;;;;;23.90;15.61;98769.69;5094671;28;20099;-60
2021/03/10 11:04:42;;;;;;;20.77;12.98;;;;;;;23.90;15.53;98766.91;5094715;28;20498;-60
2021/03/10 11:07:07;;;;;;;20.42;13.43;;;;;;;23.91;15.43;98767.69;5094765;28;20031;-60
2021/03/10 11:09:40;;;;;;;20.25;12.95;;;;;;;23.91;15.61;98754.50;5094582;28;20016;-60
2021/03/10 11:12:08;;;;;;;22.90;13.68;;;;;;;23.92;15.52;98758.09;5094739;28;20357;-60
2021/03/10 11:14:34;;;;;;;21.55;13.85;;;;;;;23.93;15.47;98752.13;5094743;28;20012;-60
2021/03/10 11:17:00;;;;;;;18.75;12.85;;;;;;;23.93;15.57;98754.13;5094476;28;20020;-60
2021/03/10 11:19:25;;;;;;;19.70;12.10;;;;;;;23.94;15.56;98759.34;5094346;28;20035;-60